Wigton, United Kingdom
Current Conditions -  °F | °C
As of 6:50 AM on Wednesday 22 Oct 2014 (Local Time) from EGOM Reporting Station
Haze Haze  
Wind Chill: 34°   Ceiling: Unl
Heat Index: 41°   Visibility: 5mi
Dew Point: 41°   Wind: 13mph
Humidity: 100%   Direction: 280°W
Pressure: 30.09"   Gusts: NA
Location:  54.82°N, 3.16°W
Report Text: EGOM 220550Z AUTO 28011KT 8000 BR FEW043/// 05/05 Q1019
Loading
Personal Weather Stations






























Interactive Weather Map New forecast layout! Learn more

10-Day Weather Forecast

Advertisements
Track Severe Weather on mobile